createdAt,value
2023-01-01T00:01:43.811Z,4.97
2023-01-01T00:04:15.346Z,4.96
2023-01-01T00:06:43.765Z,4.96
2023-01-01T00:09:29.327Z,4.93
2023-01-01T00:11:55.672Z,4.82
2023-01-01T00:14:22.372Z,4.78
2023-01-01T00:16:49.140Z,4.78
2023-01-01T00:19:16.077Z,4.70
2023-01-01T00:21:42.526Z,4.59
2023-01-01T00:24:09.157Z,4.50
2023-01-01T00:26:35.953Z,4.50
2023-01-01T00:29:03.549Z,4.40
2023-01-01T00:31:30.418Z,4.39
2023-01-01T00:33:58.044Z,4.36
2023-01-01T00:36:26.889Z,4.42
2023-01-01T00:38:53.437Z,4.41
2023-01-01T00:41:21.006Z,4.42
2023-01-01T00:43:47.820Z,4.46
2023-01-01T00:46:14.213Z,4.50
2023-01-01T00:48:41.119Z,4.45
2023-01-01T00:51:08.012Z,4.41
2023-01-01T00:53:34.545Z,4.48
2023-01-01T00:56:01.307Z,4.53
2023-01-01T00:58:27.646Z,4.51
2023-01-01T01:00:54.719Z,4.52
2023-01-01T01:03:31.230Z,4.38
2023-01-01T01:05:58.497Z,4.32
2023-01-01T01:08:30.684Z,4.34
2023-01-01T01:11:13.465Z,4.37
2023-01-01T01:13:40.895Z,4.36
2023-01-01T01:16:14.984Z,4.33
2023-01-01T01:18:42.183Z,4.31
2023-01-01T01:21:08.661Z,4.30
2023-01-01T01:23:35.942Z,4.30
2023-01-01T01:26:14.176Z,4.30
2023-01-01T01:28:48.800Z,4.33
2023-01-01T01:31:16.599Z,4.32
2023-01-01T01:33:45.019Z,4.35
2023-01-01T01:36:12.362Z,4.25
2023-01-01T01:38:38.787Z,4.26
2023-01-01T01:41:05.511Z,4.31
2023-01-01T01:43:34.837Z,4.30
2023-01-01T01:46:11.045Z,4.28
2023-01-01T01:48:40.922Z,4.23
2023-01-01T01:51:07.902Z,4.23
2023-01-01T01:53:39.445Z,4.32
2023-01-01T01:56:13.627Z,4.32
2023-01-01T01:58:40.146Z,4.41
2023-01-01T02:01:06.636Z,4.38
2023-01-01T02:03:52.120Z,4.49
2023-01-01T02:06:19.832Z,5.02
2023-01-01T02:08:46.454Z,5.92
2023-01-01T02:11:17.437Z,6.29
2023-01-01T02:13:46.640Z,6.46
2023-01-01T02:16:20.849Z,6.67
2023-01-01T02:18:54.987Z,6.89
2023-01-01T02:21:28.177Z,7.08
2023-01-01T02:24:06.936Z,6.98
2023-01-01T02:26:50.408Z,6.99
2023-01-01T02:29:26.028Z,6.87
2023-01-01T02:32:07.313Z,6.80
2023-01-01T02:34:41.330Z,6.97
2023-01-01T02:37:12.064Z,7.16
2023-01-01T02:39:46.030Z,7.39
2023-01-01T02:42:12.908Z,7.64
2023-01-01T02:44:43.103Z,7.79
2023-01-01T02:47:16.126Z,7.92
2023-01-01T02:50:06.419Z,7.80
2023-01-01T02:52:41.628Z,7.77
2023-01-01T02:55:15.462Z,7.64
2023-01-01T02:57:51.243Z,7.52
2023-01-01T03:00:20.187Z,7.37
2023-01-01T03:03:11.144Z,7.18
2023-01-01T03:06:23.130Z,7.08
2023-01-01T03:08:53.455Z,6.83
2023-01-01T03:11:22.356Z,6.79
2023-01-01T03:13:58.842Z,7.32
2023-01-01T03:16:34.316Z,7.77
2023-01-01T03:19:13.989Z,7.98
2023-01-01T03:22:11.621Z,8.02
2023-01-01T03:24:45.626Z,8.08
2023-01-01T03:27:19.234Z,8.08
2023-01-01T03:29:48.287Z,8.03
2023-01-01T03:32:21.172Z,8.02
2023-01-01T03:34:55.317Z,7.87
2023-01-01T03:37:28.027Z,7.74
2023-01-01T03:39:59.320Z,7.60
2023-01-01T03:42:34.114Z,7.39
2023-01-01T03:45:04.466Z,7.43
2023-01-01T03:47:31.255Z,7.49
2023-01-01T03:49:58.790Z,7.44
2023-01-01T03:52:53.089Z,7.39
2023-01-01T03:55:36.354Z,7.34
2023-01-01T03:58:19.114Z,7.29
2023-01-01T04:01:01.513Z,7.62
2023-01-01T04:03:31.478Z,7.28
2023-01-01T04:05:58.098Z,7.36
2023-01-01T04:08:24.974Z,7.65
2023-01-01T04:10:57.270Z,7.76
2023-01-01T04:13:23.656Z,7.56
2023-01-01T04:15:50.974Z,7.57
2023-01-01T04:18:17.774Z,7.40
2023-01-01T04:20:44.098Z,7.29
2023-01-01T04:23:10.480Z,7.09
2023-01-01T04:25:37.165Z,6.98
2023-01-01T04:28:03.720Z,6.99
2023-01-01T04:30:30.460Z,7.03
2023-01-01T04:32:57.187Z,6.99
2023-01-01T04:35:23.582Z,7.04
2023-01-01T04:37:49.919Z,7.09
2023-01-01T04:40:16.757Z,7.05
2023-01-01T04:42:43.475Z,7.03
2023-01-01T04:45:12.184Z,7.08
2023-01-01T04:47:39.301Z,7.03
2023-01-01T04:50:06.110Z,7.10
2023-01-01T04:52:32.943Z,7.03
2023-01-01T04:54:59.625Z,6.94
2023-01-01T04:57:25.966Z,6.94
2023-01-01T04:59:52.314Z,6.88
2023-01-01T05:02:19.193Z,6.76
2023-01-01T05:04:45.622Z,6.63
2023-01-01T05:07:11.948Z,6.59
2023-01-01T05:09:38.381Z,6.67
2023-01-01T05:12:04.909Z,6.75
2023-01-01T05:14:31.230Z,6.68
2023-01-01T05:16:58.132Z,6.87
2023-01-01T05:19:24.513Z,7.05
2023-01-01T05:21:50.849Z,7.04
2023-01-01T05:24:17.533Z,6.86
2023-01-01T05:26:44.977Z,6.55
2023-01-01T05:29:16.597Z,6.34
2023-01-01T05:31:44.855Z,6.11
2023-01-01T05:34:11.412Z,5.91
2023-01-01T05:36:39.102Z,5.78
2023-01-01T05:39:08.028Z,5.68
2023-01-01T05:41:36.334Z,5.56
2023-01-01T05:44:05.142Z,5.46
2023-01-01T05:46:32.434Z,5.38
2023-01-01T05:48:59.411Z,5.24
2023-01-01T05:51:28.046Z,5.11
2023-01-01T05:53:55.736Z,4.99
2023-01-01T05:56:22.720Z,4.98
2023-01-01T05:58:49.318Z,4.84
2023-01-01T06:01:28.841Z,4.79
2023-01-01T06:03:56.738Z,4.74
2023-01-01T06:06:26.329Z,4.85
2023-01-01T06:08:55.364Z,4.78
2023-01-01T06:11:22.148Z,4.71
2023-01-01T06:13:48.689Z,4.66
2023-01-01T06:16:15.445Z,4.49
2023-01-01T06:18:41.939Z,4.41
2023-01-01T06:21:13.904Z,4.35
2023-01-01T06:23:41.417Z,4.33
2023-01-01T06:26:13.892Z,4.47
2023-01-01T06:28:41.509Z,4.97
2023-01-01T06:31:10.585Z,5.10
2023-01-01T06:33:38.233Z,5.45
2023-01-01T06:36:08.048Z,5.56
2023-01-01T06:38:36.789Z,5.93
2023-01-01T06:41:06.267Z,6.14
2023-01-01T06:43:35.268Z,6.22
2023-01-01T06:46:06.136Z,6.22
2023-01-01T06:48:36.011Z,6.28
2023-01-01T06:51:17.339Z,6.24
2023-01-01T06:53:44.078Z,6.26
2023-01-01T06:56:10.638Z,6.30
2023-01-01T06:58:37.367Z,6.10
2023-01-01T07:01:08.959Z,6.03
2023-01-01T07:03:36.636Z,5.85
2023-01-01T07:06:03.346Z,5.64
2023-01-01T07:08:30.197Z,5.38
2023-01-01T07:10:57.505Z,5.17
2023-01-01T07:13:25.242Z,5.08
2023-01-01T07:15:52.837Z,4.99
2023-01-01T07:18:20.797Z,4.96
2023-01-01T07:20:56.408Z,4.85
2023-01-01T07:23:23.413Z,4.81
2023-01-01T07:25:50.999Z,4.72
2023-01-01T07:28:17.857Z,4.64
2023-01-01T07:30:44.491Z,4.61
2023-01-01T07:33:16.139Z,4.60
2023-01-01T07:35:45.257Z,4.57
2023-01-01T07:38:12.079Z,4.57
2023-01-01T07:40:38.462Z,4.55
2023-01-01T07:43:05.215Z,4.55
2023-01-01T07:45:31.894Z,5.17
2023-01-01T07:47:59.687Z,5.58
2023-01-01T07:50:29.007Z,5.90
2023-01-01T07:52:55.492Z,6.13
2023-01-01T07:55:22.304Z,6.10
2023-01-01T07:57:49.635Z,6.07
2023-01-01T08:00:19.032Z,6.08
2023-01-01T08:02:45.549Z,6.23
2023-01-01T08:05:12.436Z,6.35
2023-01-01T08:07:38.788Z,6.59
2023-01-01T08:10:07.149Z,6.91
2023-01-01T08:12:34.266Z,7.15
2023-01-01T08:15:00.620Z,7.31
2023-01-01T08:17:26.973Z,7.28
2023-01-01T08:19:53.731Z,7.26
2023-01-01T08:22:20.162Z,7.46
2023-01-01T08:24:46.567Z,7.68
2023-01-01T08:27:17.318Z,8.04
2023-01-01T08:29:44.589Z,8.51
2023-01-01T08:32:11.908Z,9.11
2023-01-01T08:34:38.710Z,9.29
2023-01-01T08:37:05.305Z,9.01
2023-01-01T08:39:32.108Z,9.05
2023-01-01T08:41:58.454Z,9.13
2023-01-01T08:44:24.793Z,9.16
2023-01-01T08:46:53.479Z,9.29
2023-01-01T08:49:19.841Z,9.54
2023-01-01T08:51:46.196Z,9.37
2023-01-01T08:54:12.932Z,9.70
2023-01-01T08:56:39.281Z,9.63
2023-01-01T08:59:06.049Z,9.66
2023-01-01T09:01:32.739Z,9.48
2023-01-01T09:03:59.147Z,9.85
2023-01-01T09:06:25.847Z,9.64
2023-01-01T09:08:52.175Z,9.80
2023-01-01T09:11:27.086Z,10.04
2023-01-01T09:13:54.778Z,9.98
2023-01-01T09:16:22.628Z,10.04
2023-01-01T09:18:49.602Z,10.20
2023-01-01T09:21:16.082Z,9.94
2023-01-01T09:23:43.036Z,9.75
2023-01-01T09:26:10.336Z,9.64
2023-01-01T09:28:37.729Z,9.74
2023-01-01T09:31:06.624Z,9.90
2023-01-01T09:33:33.944Z,9.92
2023-01-01T09:36:14.438Z,9.88
2023-01-01T09:38:40.790Z,9.82
2023-01-01T09:41:34.908Z,9.83
2023-01-01T09:44:24.801Z,9.92
2023-01-01T09:46:53.474Z,10.00
2023-01-01T09:49:37.948Z,10.11
2023-01-01T09:52:05.990Z,10.18
2023-01-01T09:54:39.812Z,10.35
2023-01-01T09:57:16.383Z,10.40
2023-01-01T09:59:46.208Z,10.48
2023-01-01T10:02:51.660Z,10.55
2023-01-01T10:05:44.223Z,10.64
2023-01-01T10:08:35.822Z,10.72
2023-01-01T10:11:18.881Z,10.74
2023-01-01T10:13:46.930Z,10.85
2023-01-01T10:16:26.188Z,10.91
2023-01-01T10:18:56.505Z,11.05
2023-01-01T10:21:39.586Z,11.10
2023-01-01T10:24:40.366Z,11.21
2023-01-01T10:27:07.066Z,11.22
2023-01-01T10:29:45.995Z,11.25
2023-01-01T10:32:20.283Z,11.40
2023-01-01T10:34:48.836Z,11.44
2023-01-01T10:37:15.401Z,11.59
2023-01-01T10:39:43.456Z,11.72
2023-01-01T10:42:13.313Z,11.77
2023-01-01T10:44:40.951Z,11.82
2023-01-01T10:47:27.310Z,11.87
2023-01-01T10:50:07.830Z,11.86
2023-01-01T10:52:43.425Z,11.98
2023-01-01T10:55:29.878Z,12.00
2023-01-01T10:57:56.593Z,12.03
2023-01-01T11:00:28.093Z,12.01
2023-01-01T11:03:19.217Z,12.03
2023-01-01T11:06:05.497Z,12.05
2023-01-01T11:08:33.913Z,12.03
2023-01-01T11:11:02.364Z,12.04
2023-01-01T11:13:30.316Z,12.09
2023-01-01T11:15:57.144Z,12.20
2023-01-01T11:18:36.188Z,12.30
2023-01-01T11:21:05.540Z,12.30
2023-01-01T11:23:36.159Z,12.42
2023-01-01T11:26:04.894Z,12.58
2023-01-01T11:28:34.839Z,12.68
2023-01-01T11:31:19.027Z,12.84
2023-01-01T11:33:50.078Z,12.73
2023-01-01T11:36:32.517Z,12.54
2023-01-01T11:39:25.035Z,12.34
2023-01-01T11:41:54.513Z,12.32
2023-01-01T11:44:38.012Z,12.32
2023-01-01T11:47:07.491Z,12.39
2023-01-01T11:49:34.731Z,12.39
2023-01-01T11:52:01.745Z,12.47
2023-01-01T11:54:34.440Z,12.55
2023-01-01T11:57:12.992Z,12.57
2023-01-01T11:59:51.311Z,12.68
2023-01-01T12:02:36.555Z,12.82
2023-01-01T12:05:43.709Z,12.98
2023-01-01T12:08:16.540Z,13.38
2023-01-01T12:10:52.676Z,13.51
2023-01-01T12:13:24.635Z,13.52
2023-01-01T12:16:11.632Z,13.53
2023-01-01T12:18:47.458Z,13.59
2023-01-01T12:21:24.675Z,13.55
2023-01-01T12:23:51.429Z,13.56
2023-01-01T12:26:26.737Z,13.57
2023-01-01T12:29:13.202Z,13.50
2023-01-01T12:32:02.146Z,13.49
2023-01-01T12:34:38.577Z,13.50
2023-01-01T12:37:11.313Z,13.56
2023-01-01T12:39:55.450Z,13.65
2023-01-01T12:43:00.916Z,13.63
2023-01-01T12:45:39.256Z,13.66
2023-01-01T12:48:31.017Z,13.75
2023-01-01T12:51:14.808Z,13.73
2023-01-01T12:53:44.722Z,13.71
2023-01-01T12:56:23.410Z,13.65
2023-01-01T12:59:17.785Z,13.64
2023-01-01T13:01:45.994Z,13.62
2023-01-01T13:04:20.668Z,13.61
2023-01-01T13:07:04.627Z,13.63
2023-01-01T13:09:35.613Z,13.58
2023-01-01T13:12:08.334Z,13.57
2023-01-01T13:14:42.946Z,13.59
2023-01-01T13:17:20.591Z,13.64
2023-01-01T13:19:49.036Z,13.61
2023-01-01T13:22:27.920Z,13.61
2023-01-01T13:25:20.926Z,13.61
2023-01-01T13:27:56.922Z,13.59
2023-01-01T13:30:36.006Z,13.52
2023-01-01T13:33:28.629Z,13.46
2023-01-01T13:36:13.372Z,13.44
2023-01-01T13:38:54.297Z,13.44
2023-01-01T13:41:35.267Z,13.35
2023-01-01T13:44:02.310Z,13.38
2023-01-01T13:46:44.139Z,13.32
2023-01-01T13:49:31.459Z,13.29
2023-01-01T13:52:32.560Z,13.21
2023-01-01T13:55:30.827Z,13.13
2023-01-01T13:58:27.195Z,13.05
2023-01-01T14:01:23.609Z,13.02
2023-01-01T14:03:53.233Z,12.94
2023-01-01T14:06:39.402Z,12.87
2023-01-01T14:09:11.343Z,12.84
2023-01-01T14:11:37.784Z,12.74
2023-01-01T14:14:24.688Z,12.71
2023-01-01T14:16:52.934Z,12.71
2023-01-01T14:19:19.329Z,12.71
2023-01-01T14:21:46.815Z,12.79
2023-01-01T14:24:16.362Z,12.78
2023-01-01T14:26:43.385Z,12.67
2023-01-01T14:29:16.763Z,12.63
2023-01-01T14:31:44.920Z,12.47
2023-01-01T14:34:27.155Z,12.34
2023-01-01T14:36:55.895Z,12.23
2023-01-01T14:39:31.383Z,12.21
2023-01-01T14:42:00.776Z,12.09
2023-01-01T14:44:40.805Z,12.02
2023-01-01T14:47:32.327Z,11.97
2023-01-01T14:50:18.829Z,11.90
2023-01-01T14:52:45.649Z,11.92
2023-01-01T14:55:19.530Z,11.79
2023-01-01T14:57:50.529Z,11.89
2023-01-01T15:00:32.773Z,11.92
2023-01-01T15:03:07.673Z,11.77
2023-01-01T15:05:36.428Z,11.43
2023-01-01T15:08:06.078Z,11.17
2023-01-01T15:10:35.938Z,10.79
2023-01-01T15:13:06.079Z,10.33
2023-01-01T15:15:39.922Z,10.13
2023-01-01T15:18:27.025Z,10.07
2023-01-01T15:20:55.289Z,9.81
2023-01-01T15:23:21.736Z,9.49
2023-01-01T15:25:48.581Z,9.36
2023-01-01T15:28:23.091Z,9.16
2023-01-01T15:30:57.295Z,9.11
2023-01-01T15:33:24.011Z,8.99
2023-01-01T15:35:52.488Z,8.91
2023-01-01T15:38:19.300Z,8.85
2023-01-01T15:40:52.738Z,8.99
2023-01-01T15:43:29.883Z,9.16
2023-01-01T15:46:11.127Z,9.26
2023-01-01T15:48:51.608Z,8.84
2023-01-01T15:51:26.989Z,8.27
2023-01-01T15:54:00.271Z,8.07
2023-01-01T15:56:32.066Z,8.01
2023-01-01T15:59:08.744Z,7.87
2023-01-01T16:01:38.380Z,7.79
2023-01-01T16:04:22.066Z,7.71
2023-01-01T16:06:54.813Z,7.60
2023-01-01T16:09:21.944Z,7.47
2023-01-01T16:11:57.022Z,7.34
2023-01-01T16:14:24.314Z,7.32
2023-01-01T16:16:57.282Z,7.26
2023-01-01T16:19:24.743Z,7.14
2023-01-01T16:21:51.071Z,7.08
2023-01-01T16:24:19.274Z,7.01
2023-01-01T16:26:47.320Z,6.86
2023-01-01T16:29:14.132Z,6.80
2023-01-01T16:31:41.923Z,6.81
2023-01-01T16:34:13.384Z,6.82
2023-01-01T16:36:39.907Z,6.72
2023-01-01T16:39:06.245Z,6.69
2023-01-01T16:41:32.990Z,6.67
2023-01-01T16:43:59.318Z,6.49
2023-01-01T16:46:28.468Z,6.30
2023-01-01T16:48:54.867Z,6.31
2023-01-01T16:51:24.828Z,6.27
2023-01-01T16:53:51.376Z,6.23
2023-01-01T16:56:18.104Z,6.15
2023-01-01T16:58:49.735Z,6.12
2023-01-01T17:01:17.901Z,5.86
2023-01-01T17:03:44.331Z,5.62
2023-01-01T17:06:11.220Z,5.48
2023-01-01T17:08:39.051Z,5.36
2023-01-01T17:11:10.085Z,5.30
2023-01-01T17:13:36.917Z,5.30
2023-01-01T17:16:03.932Z,5.23
2023-01-01T17:18:55.198Z,5.16
2023-01-01T17:21:18.442Z,5.15
2023-01-01T17:23:45.016Z,5.24
2023-01-01T17:26:15.146Z,4.96
2023-01-01T17:28:42.773Z,4.72
2023-01-01T17:31:11.924Z,4.73
2023-01-01T17:33:38.959Z,4.68
2023-01-01T17:36:06.742Z,4.64
2023-01-01T17:38:33.198Z,4.57
2023-01-01T17:41:05.487Z,4.61
2023-01-01T17:43:37.642Z,4.55
2023-01-01T17:46:06.309Z,4.50
2023-01-01T17:48:33.042Z,4.52
2023-01-01T17:51:00.419Z,4.51
2023-01-01T17:53:27.003Z,4.48
2023-01-01T17:55:53.577Z,4.39
2023-01-01T17:58:20.388Z,4.39
2023-01-01T18:00:46.945Z,4.48
2023-01-01T18:03:14.120Z,4.46
2023-01-01T18:05:41.040Z,4.40
2023-01-01T18:08:07.767Z,4.32
2023-01-01T18:10:34.319Z,4.33
2023-01-01T18:13:01.135Z,4.33
2023-01-01T18:15:27.728Z,4.28
2023-01-01T18:17:54.096Z,4.25
2023-01-01T18:20:20.618Z,4.16
2023-01-01T18:22:47.012Z,4.12
2023-01-01T18:25:13.387Z,4.04
2023-01-01T18:27:40.285Z,3.97
2023-01-01T18:30:07.091Z,3.98
2023-01-01T18:32:33.440Z,3.97
2023-01-01T18:34:59.913Z,3.84
2023-01-01T18:37:26.657Z,3.67
2023-01-01T18:39:55.658Z,3.63
2023-01-01T18:42:35.333Z,3.58
2023-01-01T18:45:13.344Z,3.59
2023-01-01T18:47:40.507Z,3.65
2023-01-01T18:50:25.539Z,3.56
2023-01-01T18:53:03.139Z,3.48
2023-01-01T18:55:30.807Z,3.41
2023-01-01T18:58:16.818Z,3.33
2023-01-01T19:00:43.587Z,3.32
2023-01-01T19:03:19.051Z,3.36
2023-01-01T19:05:47.542Z,3.33
2023-01-01T19:08:17.829Z,3.28
2023-01-01T19:10:46.227Z,3.24
2023-01-01T19:13:37.226Z,3.09
2023-01-01T19:16:29.531Z,3.10
2023-01-01T19:19:06.276Z,3.13
2023-01-01T19:21:33.220Z,3.14
2023-01-01T19:24:02.057Z,3.10
2023-01-01T19:26:34.582Z,3.05
2023-01-01T19:29:16.965Z,3.08
2023-01-01T19:31:45.120Z,3.15
2023-01-01T19:34:11.660Z,3.22
2023-01-01T19:36:38.493Z,3.22
2023-01-01T19:39:05.812Z,3.23
2023-01-01T19:41:32.417Z,3.24
2023-01-01T19:43:58.757Z,3.28
2023-01-01T19:46:25.535Z,3.29
2023-01-01T19:48:53.589Z,3.24
2023-01-01T19:51:22.571Z,3.26
2023-01-01T19:53:53.288Z,3.15
2023-01-01T19:56:20.089Z,3.14
2023-01-01T19:58:46.583Z,3.14
2023-01-01T20:01:14.008Z,3.06
2023-01-01T20:03:54.194Z,3.09
2023-01-01T20:06:21.689Z,3.07
2023-01-01T20:08:48.011Z,3.02
2023-01-01T20:11:15.331Z,2.99
2023-01-01T20:13:42.065Z,2.96
2023-01-01T20:16:08.626Z,2.95
2023-01-01T20:18:35.085Z,2.99
2023-01-01T20:21:25.567Z,3.02
2023-01-01T20:23:52.602Z,3.12
2023-01-01T20:26:21.101Z,3.21
2023-01-01T20:29:05.771Z,3.30
2023-01-01T20:31:32.156Z,3.18
2023-01-01T20:33:58.514Z,3.11
2023-01-01T20:36:43.685Z,3.08
2023-01-01T20:39:10.530Z,3.15
2023-01-01T20:41:36.891Z,3.31
2023-01-01T20:44:03.277Z,3.36
2023-01-01T20:46:30.361Z,3.32
2023-01-01T20:48:57.461Z,3.12
2023-01-01T20:51:23.890Z,2.98
2023-01-01T20:53:50.771Z,2.92
2023-01-01T20:56:17.122Z,2.92
2023-01-01T20:58:48.571Z,2.87
2023-01-01T21:01:17.007Z,2.85
2023-01-01T21:03:43.394Z,2.82
2023-01-01T21:06:09.821Z,2.86
2023-01-01T21:08:36.537Z,2.81
2023-01-01T21:11:03.254Z,2.85
2023-01-01T21:13:29.641Z,2.74
2023-01-01T21:16:02.301Z,2.76
2023-01-01T21:18:30.473Z,2.80
2023-01-01T21:20:56.861Z,2.83
2023-01-01T21:23:30.038Z,2.77
2023-01-01T21:25:57.138Z,2.72
2023-01-01T21:28:27.008Z,2.70
2023-01-01T21:30:56.875Z,2.77
2023-01-01T21:33:28.910Z,2.72
2023-01-01T21:35:55.452Z,2.82
2023-01-01T21:38:26.404Z,2.86
2023-01-01T21:40:54.048Z,2.85
2023-01-01T21:43:33.068Z,2.69
2023-01-01T21:46:14.420Z,2.65
2023-01-01T21:48:47.269Z,2.57
2023-01-01T21:51:22.689Z,2.52
2023-01-01T21:53:49.965Z,2.55
2023-01-01T21:56:37.622Z,2.56
2023-01-01T21:59:35.515Z,2.61
2023-01-01T22:02:08.589Z,2.58
2023-01-01T22:04:40.058Z,2.58
2023-01-01T22:10:25.343Z,2.64
2023-01-01T22:12:59.391Z,2.71
2023-01-01T22:15:25.774Z,2.70
2023-01-01T22:18:12.715Z,2.68
2023-01-01T22:20:41.702Z,2.56
2023-01-01T22:23:23.541Z,2.56
2023-01-01T22:25:51.373Z,2.56
2023-01-01T22:28:33.247Z,2.49
2023-01-01T22:31:01.716Z,2.47
2023-01-01T22:33:38.749Z,2.40
2023-01-01T22:36:22.211Z,2.42
2023-01-01T22:38:49.261Z,2.38
2023-01-01T22:41:15.722Z,2.38
2023-01-01T22:43:45.831Z,2.41
2023-01-01T22:46:27.324Z,2.51
2023-01-01T22:48:58.360Z,2.46
2023-01-01T22:51:28.905Z,2.49
2023-01-01T22:53:55.262Z,2.47
2023-01-01T22:56:21.778Z,2.48
2023-01-01T22:58:54.769Z,2.44
2023-01-01T23:01:23.407Z,2.46
2023-01-01T23:03:50.222Z,2.53
2023-01-01T23:06:18.484Z,2.58
2023-01-01T23:08:45.133Z,2.63
2023-01-01T23:11:11.651Z,2.59
2023-01-01T23:13:56.865Z,2.62
2023-01-01T23:16:23.281Z,2.53
2023-01-01T23:18:49.702Z,2.51
2023-01-01T23:21:26.363Z,2.56
2023-01-01T23:23:56.558Z,2.61
2023-01-01T23:26:23.989Z,2.60
2023-01-01T23:28:51.153Z,2.48
2023-01-01T23:31:25.231Z,2.46
2023-01-01T23:33:52.845Z,2.51
2023-01-01T23:36:19.218Z,2.38
2023-01-01T23:38:46.165Z,2.53
2023-01-01T23:41:12.497Z,2.52
2023-01-01T23:43:43.229Z,2.44
2023-01-01T23:46:11.758Z,2.55
2023-01-01T23:48:38.516Z,2.49
2023-01-01T23:51:05.184Z,2.42
2023-01-01T23:53:31.964Z,2.36
2023-01-01T23:55:58.444Z,2.33
2023-01-01T23:58:25.329Z,2.34
